Terminal Aerodrome Forecast
Issued by NWS Sterling, VA

Current Version | Previous Version | Graphics & Text | Print | Product List | Glossary On
Versions: 1 2 3 4 5 6 7 8 9 10 11 12 13 14 15 16 17 18 19 20 21 22 23 24 25
000
FTUS41 KLWX 190800 AAA
TAFDCA
TAF AMD
KDCA 190859Z 1909/2006 30008KT P6SM BKN080 OVC100
     FM191300 30007KT P6SM FEW040 SCT080
     FM191600 31011G17KT P6SM FEW040 SCT250=

USA.gov is the U.S. government's official web portal to all federal, state and local government web resources and services.